Time;durP1;ratioP1;P1;durP2;ratioP2;P2;SDS_P1;SDS_P2;PMS_P1;PMS_P2;Temp;Humidity;BMP_temperature;BMP_pressure;BME280_temperature;BME280_humidity;BME280_pressure;Samples;Min_cycle;Max_cycle;Signal;HPM_P1;HPM_P2
2021/07/06 00:01:25;;;;;;;1.35;0.80;;;23.40;66.50;;;;;;4993883;28;20459;-30
2021/07/06 00:03:51;;;;;;;0.95;0.55;;;23.40;65.80;;;;;;4994003;28;20029;-32
2021/07/06 00:06:17;;;;;;;1.00;0.80;;;23.40;65.70;;;;;;4978426;28;20469;-28
2021/07/06 00:08:42;;;;;;;1.23;0.70;;;23.40;65.70;;;;;;4992510;28;20527;-32
2021/07/06 00:11:08;;;;;;;1.05;0.40;;;23.30;65.90;;;;;;4973295;28;20046;-27
2021/07/06 00:13:33;;;;;;;0.60;0.40;;;23.40;65.70;;;;;;4993739;28;20049;-29
2021/07/06 00:15:59;;;;;;;0.80;0.60;;;23.40;65.70;;;;;;4993452;28;20445;-27
2021/07/06 00:18:25;;;;;;;1.55;0.80;;;23.40;65.50;;;;;;4993486;28;20064;-30
2021/07/06 00:20:50;;;;;;;1.63;0.70;;;23.40;65.40;;;;;;4994118;28;20521;-30
2021/07/06 00:23:16;;;;;;;1.10;0.65;;;23.40;65.70;;;;;;4993981;28;20045;-32
2021/07/06 00:25:41;;;;;;;1.40;0.90;;;23.40;65.60;;;;;;4993511;28;20478;-29
2021/07/06 00:28:07;;;;;;;1.33;0.60;;;23.40;65.40;;;;;;4992720;28;20033;-36
2021/07/06 00:30:32;;;;;;;1.83;0.98;;;23.30;65.60;;;;;;4993104;28;20030;-30
2021/07/06 00:32:58;;;;;;;1.60;0.80;;;23.30;65.40;;;;;;4993523;28;20081;-27
2021/07/06 00:35:24;;;;;;;1.10;0.70;;;23.30;65.40;;;;;;4994145;28;20034;-31
2021/07/06 00:37:50;;;;;;;1.10;0.63;;;23.30;65.50;;;;;;4992481;28;20393;-30
2021/07/06 00:40:16;;;;;;;1.10;0.50;;;23.30;65.70;;;;;;4992131;28;20037;-29
2021/07/06 00:42:42;;;;;;;1.65;0.85;;;23.30;65.50;;;;;;4992246;28;20026;-29
2021/07/06 00:45:09;;;;;;;1.58;0.80;;;23.30;65.50;;;;;;4992979;28;20042;-33
2021/07/06 00:47:36;;;;;;;1.15;0.65;;;23.30;65.60;;;;;;4976116;28;20019;-25
2021/07/06 00:50:03;;;;;;;0.73;0.60;;;23.30;65.50;;;;;;4992591;28;20034;-29
2021/07/06 00:52:29;;;;;;;0.95;0.70;;;23.30;65.50;;;;;;4992487;28;20015;-32
2021/07/06 00:54:55;;;;;;;1.80;0.73;;;23.30;65.30;;;;;;4992896;28;20045;-32
2021/07/06 00:57:29;;;;;;;1.33;0.90;;;23.30;66.10;;;;;;4992931;28;20101;-34
2021/07/06 00:59:56;;;;;;;;;;;23.30;65.40;;;;;;4977123;28;20038;-31
2021/07/06 01:02:21;;;;;;;1.33;0.73;;;23.20;65.50;;;;;;4992660;28;20004;-32
2021/07/06 01:04:47;;;;;;;1.90;0.80;;;23.20;65.40;;;;;;4992577;28;20560;-32
2021/07/06 01:07:12;;;;;;;1.33;0.60;;;23.30;65.50;;;;;;4992407;28;20085;-27
2021/07/06 01:09:38;;;;;;;1.00;0.75;;;23.30;65.40;;;;;;4992202;28;20018;-29
2021/07/06 01:12:04;;;;;;;0.77;0.65;;;23.30;65.20;;;;;;4992399;28;20030;-32
2021/07/06 01:14:29;;;;;;;1.13;0.77;;;23.20;65.30;;;;;;4993333;28;20052;-32
2021/07/06 01:16:55;;;;;;;1.95;0.85;;;23.20;65.40;;;;;;4992203;28;20030;-32
2021/07/06 01:19:20;;;;;;;1.60;0.90;;;23.20;65.30;;;;;;4991789;28;20018;-34
2021/07/06 01:21:46;;;;;;;1.83;0.93;;;23.20;65.30;;;;;;4991382;28;20404;-28
2021/07/06 01:24:12;;;;;;;2.25;0.80;;;23.20;65.00;;;;;;4992330;28;20038;-30
2021/07/06 01:26:37;;;;;;;0.95;0.70;;;23.20;65.10;;;;;;4992494;28;20042;-29
2021/07/06 01:29:03;;;;;;;1.00;0.70;;;23.20;65.00;;;;;;4991811;28;20018;-32
2021/07/06 01:31:28;;;;;;;0.85;0.57;;;23.20;65.20;;;;;;4992267;28;20030;-32
2021/07/06 01:33:57;;;;;;;1.02;0.60;;;23.10;65.10;;;;;;4991656;28;20511;-29
2021/07/06 01:36:23;;;;;;;1.48;0.73;;;23.10;65.10;;;;;;4991865;28;20486;-30
2021/07/06 01:38:49;;;;;;;1.10;0.70;;;23.20;65.20;;;;;;4992152;28;20025;-34
2021/07/06 01:41:16;;;;;;;1.42;0.63;;;23.10;65.10;;;;;;4992506;28;20455;-27
2021/07/06 01:43:42;;;;;;;1.00;0.68;;;23.10;65.00;;;;;;4991870;28;20117;-32
2021/07/06 01:46:07;;;;;;;0.95;0.63;;;23.10;65.00;;;;;;4991585;28;20165;-32
2021/07/06 01:48:33;;;;;;;1.35;0.90;;;23.10;65.10;;;;;;4990798;28;20073;-29
2021/07/06 01:50:58;;;;;;;0.88;0.63;;;23.10;65.00;;;;;;4992011;28;20105;-30
2021/07/06 01:53:24;;;;;;;1.65;0.80;;;23.10;65.00;;;;;;4992341;28;20030;-30
2021/07/06 01:55:50;;;;;;;0.60;0.47;;;23.10;64.90;;;;;;4991654;28;20050;-29
2021/07/06 01:58:17;;;;;;;1.08;0.80;;;23.10;64.90;;;;;;4991032;28;20081;-30
2021/07/06 02:00:51;;;;;;;0.85;0.70;;;23.20;64.90;;;;;;4991636;28;20088;-34
2021/07/06 02:03:16;;;;;;;2.45;0.80;;;23.20;64.60;;;;;;4991960;28;20042;-38
2021/07/06 02:05:47;;;;;;;1.13;0.80;;;23.20;64.50;;;;;;4992028;28;20038;-33
2021/07/06 02:08:16;;;;;;;2.17;0.60;;;23.20;64.50;;;;;;4991045;28;20029;-30
2021/07/06 02:10:42;;;;;;;1.27;0.70;;;23.20;64.50;;;;;;4991070;28;20035;-29
2021/07/06 02:13:18;;;;;;;1.75;0.88;;;23.20;64.50;;;;;;4991942;28;20026;-27
2021/07/06 02:15:44;;;;;;;0.80;0.60;;;23.10;64.60;;;;;;4991301;28;20437;-34
2021/07/06 02:18:20;;;;;;;1.08;0.88;;;23.10;64.50;;;;;;4990746;28;20401;-29
2021/07/06 02:20:47;;;;;;;1.65;1.00;;;23.10;64.40;;;;;;4986793;28;20509;-30
2021/07/06 02:23:13;;;;;;;1.65;0.82;;;23.10;65.40;;;;;;4991581;28;20442;-30
2021/07/06 02:25:39;;;;;;;2.55;1.00;;;23.10;64.50;;;;;;4990966;28;20077;-30
2021/07/06 02:28:04;;;;;;;0.70;0.60;;;23.10;64.50;;;;;;4990765;28;20081;-34
2021/07/06 02:30:30;;;;;;;1.40;1.00;;;23.10;64.60;;;;;;4991081;28;20041;-32
2021/07/06 02:32:56;;;;;;;1.17;0.85;;;23.10;64.70;;;;;;4991382;28;20129;-32
2021/07/06 02:35:23;;;;;;;1.35;0.70;;;23.00;64.80;;;;;;4991837;28;20038;-31
2021/07/06 02:37:49;;;;;;;1.17;0.77;;;23.00;64.90;;;;;;4990865;28;20506;-28
2021/07/06 02:40:15;;;;;;;1.30;0.60;;;23.00;64.70;;;;;;4990842;28;20034;-27
2021/07/06 02:42:41;;;;;;;1.08;0.60;;;23.10;64.40;;;;;;4991355;28;20031;-30
2021/07/06 02:45:07;;;;;;;1.65;0.90;;;23.10;64.40;;;;;;4991078;28;20043;-33
2021/07/06 02:47:33;;;;;;;0.88;0.50;;;23.10;64.40;;;;;;4991184;28;20461;-32
2021/07/06 02:49:59;;;;;;;1.63;1.20;;;23.10;64.60;;;;;;4989449;28;20030;-27
2021/07/06 02:52:25;;;;;;;1.23;0.70;;;23.10;64.50;;;;;;4990979;28;20018;-33
2021/07/06 02:54:50;;;;;;;1.27;0.80;;;23.10;64.60;;;;;;4992126;28;20512;-32
2021/07/06 02:57:37;;;;;;;1.13;0.90;;;23.10;64.40;;;;;;4990840;28;20417;-31
2021/07/06 03:00:09;;;;;;;1.52;0.80;;;23.10;64.40;;;;;;4990365;28;20121;-29
2021/07/06 03:02:39;;;;;;;0.80;0.50;;;23.10;64.40;;;;;;4990098;28;20467;-29
2021/07/06 03:05:06;;;;;;;1.70;0.88;;;23.10;64.40;;;;;;4992573;28;20030;-29
2021/07/06 03:07:31;;;;;;;1.25;0.68;;;23.10;64.60;;;;;;4994687;28;20054;-33
2021/07/06 03:09:57;;;;;;;1.30;0.90;;;23.10;64.30;;;;;;4994435;28;20064;-27
2021/07/06 03:12:22;;;;;;;0.77;0.70;;;23.00;64.40;;;;;;4995411;28;20046;-33
2021/07/06 03:14:48;;;;;;;1.55;1.05;;;23.10;64.40;;;;;;4977936;28;20408;-30
2021/07/06 03:17:13;;;;;;;0.80;0.60;;;23.10;64.30;;;;;;4994408;28;20027;-29
2021/07/06 03:19:39;;;;;;;0.90;0.68;;;23.00;64.40;;;;;;4994102;28;20026;-35
2021/07/06 03:22:04;;;;;;;0.82;0.70;;;23.00;64.30;;;;;;4994869;28;20030;-29
2021/07/06 03:24:30;;;;;;;1.60;1.00;;;23.00;64.10;;;;;;4994356;28;20034;-30
2021/07/06 03:26:56;;;;;;;1.10;0.60;;;23.00;64.30;;;;;;4994819;28;20038;-31
2021/07/06 03:29:21;;;;;;;1.35;0.90;;;23.00;64.30;;;;;;4993350;28;20026;-28
2021/07/06 03:31:47;;;;;;;1.40;0.82;;;23.00;64.10;;;;;;4994439;28;20029;-27
2021/07/06 03:34:12;;;;;;;1.58;0.82;;;23.10;64.00;;;;;;4994254;28;20042;-28
2021/07/06 03:36:38;;;;;;;0.90;0.60;;;23.10;63.90;;;;;;4994351;28;20037;-37
2021/07/06 03:39:03;;;;;;;1.70;0.88;;;23.10;64.20;;;;;;4994301;28;20424;-29
2021/07/06 03:41:29;;;;;;;0.70;0.60;;;23.00;64.10;;;;;;4977496;28;20026;-27
2021/07/06 03:43:54;;;;;;;1.50;0.70;;;23.10;64.00;;;;;;4993842;28;20026;-31
2021/07/06 03:46:20;;;;;;;1.65;0.90;;;23.10;64.00;;;;;;4993590;28;20544;-31
2021/07/06 03:48:46;;;;;;;0.73;0.50;;;23.10;64.00;;;;;;4993520;28;20030;-31
2021/07/06 03:51:12;;;;;;;0.88;0.70;;;23.10;63.90;;;;;;4994263;28;20030;-34
2021/07/06 03:53:38;;;;;;;1.35;0.65;;;23.00;64.00;;;;;;4994935;28;20022;-33
2021/07/06 03:56:04;;;;;;;0.75;0.60;;;23.00;64.00;;;;;;4993671;28;20022;-32
2021/07/06 03:58:29;;;;;;;1.27;0.90;;;23.00;64.20;;;;;;4993289;28;20034;-32
2021/07/06 04:00:55;;;;;;;1.48;1.02;;;23.00;64.10;;;;;;4994140;28;20080;-29
2021/07/06 04:03:20;;;;;;;1.08;0.73;;;23.10;64.10;;;;;;4993988;28;20405;-32
2021/07/06 04:05:46;;;;;;;2.00;0.75;;;23.00;64.00;;;;;;4994564;28;20031;-31
2021/07/06 04:08:11;;;;;;;1.02;0.60;;;23.10;64.10;;;;;;4993327;28;20027;-32
2021/07/06 04:10:37;;;;;;;0.60;0.50;;;23.10;63.90;;;;;;4993692;28;20117;-28
2021/07/06 04:13:03;;;;;;;1.45;0.70;;;23.10;64.00;;;;;;4993704;28;20018;-35
2021/07/06 04:15:28;;;;;;;0.93;0.70;;;23.10;64.00;;;;;;4993061;28;20046;-30
2021/07/06 04:17:54;;;;;;;1.27;0.60;;;23.00;64.00;;;;;;4993626;28;20030;-32
2021/07/06 04:20:19;;;;;;;1.40;0.98;;;23.10;64.00;;;;;;4993761;28;20126;-29
2021/07/06 04:22:46;;;;;;;1.75;0.80;;;23.10;64.00;;;;;;4993035;28;20113;-29
2021/07/06 04:25:12;;;;;;;1.50;0.57;;;23.10;63.70;;;;;;4992224;28;20509;-30
2021/07/06 04:27:37;;;;;;;1.02;0.50;;;23.00;63.90;;;;;;4993232;28;20049;-32
2021/07/06 04:30:05;;;;;;;0.85;0.60;;;23.00;64.10;;;;;;4975152;28;20065;-34
2021/07/06 04:32:30;;;;;;;1.35;1.00;;;23.00;63.80;;;;;;4991376;28;20061;-34
2021/07/06 04:34:56;;;;;;;1.15;0.80;;;23.00;64.20;;;;;;4992129;28;20026;-31
2021/07/06 04:37:22;;;;;;;1.65;0.88;;;23.00;64.20;;;;;;4992131;28;20030;-32
2021/07/06 04:39:47;;;;;;;1.85;0.90;;;23.00;64.10;;;;;;4991979;28;20524;-31
2021/07/06 04:42:15;;;;;;;1.25;0.90;;;23.00;64.10;;;;;;4992803;28;20035;-32
2021/07/06 04:44:41;;;;;;;1.00;0.70;;;23.00;64.00;;;;;;4992383;28;20038;-27
2021/07/06 04:47:07;;;;;;;0.98;0.60;;;23.00;64.00;;;;;;4992200;28;20149;-28
2021/07/06 04:49:32;;;;;;;2.17;0.90;;;23.00;64.00;;;;;;4992039;28;20490;-30
2021/07/06 04:51:58;;;;;;;1.05;0.70;;;23.00;63.90;;;;;;4990521;28;20024;-31
2021/07/06 04:54:24;;;;;;;0.70;0.50;;;23.00;64.00;;;;;;4991974;28;20086;-31
2021/07/06 04:56:51;;;;;;;1.23;0.70;;;23.00;64.10;;;;;;4980155;28;20034;-32
2021/07/06 04:59:17;;;;;;;0.73;0.63;;;22.90;63.90;;;;;;4985078;28;20042;-36
2021/07/06 05:01:46;;;;;;;1.15;0.85;;;23.00;64.00;;;;;;4986105;28;20034;-33
2021/07/06 05:04:12;;;;;;;0.88;0.70;;;22.90;64.80;;;;;;4984011;28;20038;-35
2021/07/06 05:06:37;;;;;;;1.33;0.50;;;23.00;63.90;;;;;;4982850;28;20038;-30
2021/07/06 05:09:03;;;;;;;0.95;0.73;;;23.00;64.00;;;;;;4977991;28;20033;-27
2021/07/06 05:11:28;;;;;;;1.10;0.77;;;23.00;63.90;;;;;;4984378;28;20081;-36
2021/07/06 05:13:54;;;;;;;0.98;0.63;;;22.90;64.00;;;;;;4985261;28;20032;-31
2021/07/06 05:16:20;;;;;;;0.70;0.70;;;22.90;64.10;;;;;;4982655;28;20026;-34
2021/07/06 05:18:45;;;;;;;0.60;0.50;;;22.90;64.10;;;;;;4977571;28;20712;-35
2021/07/06 05:21:11;;;;;;;0.90;0.70;;;22.90;64.10;;;;;;4982416;28;20034;-35
2021/07/06 05:23:36;;;;;;;0.70;0.50;;;22.90;64.20;;;;;;4980521;28;20565;-33
2021/07/06 05:26:02;;;;;;;0.85;0.65;;;22.90;63.90;;;;;;4988690;28;20045;-32
2021/07/06 05:28:28;;;;;;;1.48;0.63;;;22.90;63.90;;;;;;4989365;28;20461;-34
2021/07/06 05:30:54;;;;;;;0.70;0.70;;;22.90;64.00;;;;;;4991578;28;20066;-30
2021/07/06 05:33:20;;;;;;;1.27;0.60;;;22.80;64.30;;;;;;4986303;28;20070;-33
2021/07/06 05:35:45;;;;;;;0.77;0.47;;;22.90;64.20;;;;;;4976856;28;20034;-33
2021/07/06 05:38:11;;;;;;;0.98;0.80;;;22.90;63.80;;;;;;4983424;28;20093;-30
2021/07/06 05:40:40;;;;;;;1.67;0.55;;;22.90;63.90;;;;;;4981770;28;20031;-35
2021/07/06 05:43:09;;;;;;;1.20;0.60;;;22.90;63.80;;;;;;4980158;28;20030;-33
2021/07/06 05:45:35;;;;;;;1.88;0.70;;;22.80;63.60;;;;;;4950564;28;20556;-30
2021/07/06 05:48:01;;;;;;;0.57;0.43;;;22.90;63.40;;;;;;4979396;28;20015;-28
2021/07/06 05:50:26;;;;;;;1.33;0.50;;;23.00;63.30;;;;;;4966667;28;20042;-31
2021/07/06 05:52:52;;;;;;;1.30;0.52;;;23.00;63.30;;;;;;4985448;28;20045;-30
2021/07/06 05:55:17;;;;;;;0.90;0.63;;;22.90;63.10;;;;;;4981960;28;20570;-33
2021/07/06 05:57:43;;;;;;;0.77;0.65;;;22.90;63.20;;;;;;4984903;28;20021;-28
2021/07/06 06:00:10;;;;;;;0.90;0.60;;;22.90;63.30;;;;;;4979364;28;20034;-32
2021/07/06 06:02:36;;;;;;;8.88;0.68;;;22.90;63.40;;;;;;4981895;28;20035;-38
2021/07/06 06:05:03;;;;;;;0.70;0.50;;;22.90;63.50;;;;;;4967798;28;20034;-30
2021/07/06 06:07:29;;;;;;;0.77;0.60;;;22.90;63.30;;;;;;4981516;28;20023;-33
2021/07/06 06:09:54;;;;;;;1.13;0.50;;;22.90;63.30;;;;;;4977165;28;20129;-36
2021/07/06 06:12:20;;;;;;;1.10;0.60;;;23.00;63.00;;;;;;4986430;28;20168;-31
2021/07/06 06:14:45;;;;;;;0.40;0.40;;;23.00;63.00;;;;;;4979680;28;20850;-36
2021/07/06 06:17:11;;;;;;;0.77;0.57;;;23.10;62.80;;;;;;4977216;28;20045;-31
2021/07/06 06:19:36;;;;;;;1.85;0.50;;;23.00;62.80;;;;;;4977225;28;20441;-34
2021/07/06 06:22:02;;;;;;;1.00;0.60;;;22.90;63.20;;;;;;4978051;28;20027;-31
2021/07/06 06:24:28;;;;;;;1.17;0.70;;;22.90;63.50;;;;;;4980178;28;20033;-33
2021/07/06 06:26:54;;;;;;;0.90;0.55;;;23.00;63.10;;;;;;4966427;28;20121;-30
2021/07/06 06:29:19;;;;;;;1.45;0.55;;;23.00;63.30;;;;;;4975961;28;20576;-32
2021/07/06 06:31:45;;;;;;;0.75;0.65;;;22.90;63.40;;;;;;4975868;28;20509;-31
2021/07/06 06:34:11;;;;;;;1.23;0.50;;;22.90;63.40;;;;;;4976770;28;20496;-31
2021/07/06 06:36:36;;;;;;;0.90;0.50;;;22.90;63.50;;;;;;4981732;28;20176;-30
2021/07/06 06:39:03;;;;;;;1.38;0.60;;;23.00;63.20;;;;;;4982396;28;20030;-31
2021/07/06 06:41:29;;;;;;;0.70;0.50;;;23.00;63.20;;;;;;4989386;28;20077;-28
2021/07/06 06:43:54;;;;;;;1.00;0.45;;;23.00;63.20;;;;;;4987505;28;20034;-31
2021/07/06 06:46:21;;;;;;;1.08;0.80;;;23.10;63.00;;;;;;4988395;28;20105;-35
2021/07/06 06:48:47;;;;;;;1.20;0.80;;;23.00;63.10;;;;;;4988281;28;20042;-29
2021/07/06 06:51:13;;;;;;;1.45;0.60;;;23.10;63.10;;;;;;4990832;28;20102;-34
2021/07/06 06:53:39;;;;;;;1.45;0.60;;;23.00;63.20;;;;;;4991388;28;20022;-30
2021/07/06 06:56:04;;;;;;;0.95;0.57;;;23.00;63.60;;;;;;4990958;28;20054;-36
2021/07/06 06:58:30;;;;;;;0.88;0.65;;;23.00;64.00;;;;;;4991115;28;20457;-31
2021/07/06 07:00:56;;;;;;;1.15;0.50;;;23.00;63.50;;;;;;4991359;28;20042;-31
2021/07/06 07:03:21;;;;;;;0.55;0.45;;;23.00;63.50;;;;;;4990783;28;20022;-32
2021/07/06 07:05:47;;;;;;;0.85;0.47;;;23.10;63.20;;;;;;4991542;28;20085;-28
2021/07/06 07:08:13;;;;;;;1.27;0.43;;;23.20;63.00;;;;;;4989446;28;20026;-32
2021/07/06 07:10:40;;;;;;;1.45;0.75;;;23.00;63.70;;;;;;4973356;28;20034;-31
2021/07/06 07:13:06;;;;;;;0.68;0.40;;;23.00;63.90;;;;;;4991500;28;20050;-32
2021/07/06 07:15:32;;;;;;;1.45;0.60;;;23.00;63.70;;;;;;4990924;28;20034;-29
2021/07/06 07:17:58;;;;;;;0.85;0.65;;;23.00;63.80;;;;;;4991226;28;20010;-29
2021/07/06 07:20:23;;;;;;;0.82;0.50;;;23.00;63.50;;;;;;4991494;28;20029;-28
2021/07/06 07:22:49;;;;;;;1.42;0.80;;;23.20;63.10;;;;;;4990870;28;20077;-34
2021/07/06 07:25:15;;;;;;;1.55;0.60;;;23.10;63.60;;;;;;4990921;28;20049;-35
2021/07/06 07:27:41;;;;;;;1.30;0.60;;;23.00;63.60;;;;;;4990912;28;20113;-30
2021/07/06 07:30:07;;;;;;;0.50;0.40;;;23.10;63.60;;;;;;4986310;28;20698;-36
2021/07/06 07:32:33;;;;;;;0.63;0.40;;;23.20;63.60;;;;;;4970658;28;20043;-34
2021/07/06 07:34:59;;;;;;;0.80;0.40;;;23.10;63.70;;;;;;4984004;28;20109;-38
2021/07/06 07:37:24;;;;;;;1.30;0.60;;;23.10;63.70;;;;;;4987635;28;20023;-32
2021/07/06 07:39:50;;;;;;;0.40;0.40;;;23.20;63.50;;;;;;4984153;28;20101;-35
2021/07/06 07:42:19;;;;;;;0.50;0.50;;;23.10;63.30;;;;;;4978257;28;20027;-31
2021/07/06 07:44:45;;;;;;;1.02;0.30;;;23.20;63.70;;;;;;4983295;28;20088;-32
2021/07/06 07:47:10;;;;;;;0.70;0.52;;;23.20;63.50;;;;;;4990059;28;20413;-36
2021/07/06 07:49:36;;;;;;;0.65;0.40;;;23.30;63.20;;;;;;4989117;28;20030;-35
2021/07/06 07:52:02;;;;;;;1.23;0.40;;;23.20;63.10;;;;;;4988279;28;20069;-34
2021/07/06 07:54:28;;;;;;;0.70;0.38;;;23.30;63.40;;;;;;4978271;28;20537;-34
2021/07/06 07:56:53;;;;;;;0.40;0.40;;;23.30;63.20;;;;;;4971015;28;20033;-31
2021/07/06 07:59:19;;;;;;;0.80;0.47;;;23.20;63.40;;;;;;4952838;28;20159;-34
2021/07/06 08:01:45;;;;;;;0.70;0.43;;;23.30;63.20;;;;;;4970450;28;20838;-35
2021/07/06 08:04:10;;;;;;;1.08;0.50;;;23.30;63.60;;;;;;4958074;28;20129;-32
2021/07/06 08:06:36;;;;;;;0.73;0.50;;;23.40;63.40;;;;;;4974756;28;20425;-31
2021/07/06 08:09:01;;;;;;;3.72;0.85;;;23.40;63.50;;;;;;4966130;28;20033;-30
2021/07/06 08:11:27;;;;;;;1.02;0.60;;;23.50;63.20;;;;;;4969861;28;20035;-37
2021/07/06 08:13:53;;;;;;;0.70;0.47;;;23.50;63.20;;;;;;4963112;28;20117;-32
2021/07/06 08:16:18;;;;;;;1.73;0.50;;;23.50;64.00;;;;;;4961767;28;20030;-34
2021/07/06 08:18:44;;;;;;;0.63;0.32;;;23.60;63.80;;;;;;4966453;28;20038;-31
2021/07/06 08:21:09;;;;;;;2.03;0.50;;;23.70;63.00;;;;;;4970599;28;20759;-32
2021/07/06 08:23:35;;;;;;;0.40;0.30;;;23.60;63.00;;;;;;4951674;28;20041;-36
2021/07/06 08:26:02;;;;;;;0.60;0.30;;;23.70;62.90;;;;;;4968989;28;20043;-38
2021/07/06 08:28:27;;;;;;;0.98;0.55;;;23.70;62.90;;;;;;4968872;28;20026;-31
2021/07/06 08:30:54;;;;;;;0.47;0.38;;;23.60;62.80;;;;;;4941461;28;20402;-38
2021/07/06 08:33:20;;;;;;;1.20;0.60;;;23.70;63.10;;;;;;4969300;28;20065;-30
2021/07/06 08:35:46;;;;;;;0.80;0.40;;;23.60;62.70;;;;;;4966108;28;20046;-29
2021/07/06 08:38:14;;;;;;;1.30;0.40;;;23.60;63.10;;;;;;4973953;28;20041;-34
2021/07/06 08:40:43;;;;;;;2.47;0.40;;;23.60;63.20;;;;;;4970032;28;20129;-38
2021/07/06 08:43:08;;;;;;;0.30;0.30;;;23.60;63.20;;;;;;4975760;28;20422;-32
2021/07/06 08:45:34;;;;;;;0.73;0.40;;;23.50;63.60;;;;;;4940431;28;20569;-32
2021/07/06 08:48:04;;;;;;;0.60;0.43;;;23.60;63.00;;;;;;4755954;28;10000560;-33
2021/07/06 08:50:29;;;;;;;1.02;0.60;;;23.60;63.00;;;;;;4966584;28;20239;-34
2021/07/06 08:52:56;;;;;;;2.08;0.40;;;23.80;62.70;;;;;;4971376;28;20030;-28
2021/07/06 08:55:21;;;;;;;2.00;0.52;;;23.70;62.80;;;;;;4952435;28;20034;-37
2021/07/06 08:57:48;;;;;;;2.42;0.40;;;23.80;62.70;;;;;;4971064;28;20033;-44
2021/07/06 09:00:15;;;;;;;1.13;0.60;;;23.80;62.80;;;;;;4966039;28;20031;-34
2021/07/06 09:02:41;;;;;;;1.10;0.50;;;23.80;63.00;;;;;;4962867;28;20761;-33
2021/07/06 09:05:27;;;;;;;0.80;0.50;;;23.80;62.80;;;;;;4938386;28;20034;-32
2021/07/06 09:07:53;;;;;;;0.80;0.40;;;23.90;62.80;;;;;;4970487;28;20073;-33
2021/07/06 09:10:23;;;;;;;0.82;0.50;;;23.90;62.50;;;;;;4968415;28;20124;-39
2021/07/06 09:12:49;;;;;;;0.70;0.30;;;24.00;62.50;;;;;;4960040;28;20073;-36
2021/07/06 09:15:23;;;;;;;0.60;0.52;;;23.90;62.60;;;;;;4960469;28;20049;-31
2021/07/06 09:18:06;;;;;;;0.40;0.40;;;24.00;62.40;;;;;;4962460;28;20113;-36
2021/07/06 09:20:33;;;;;;;0.98;0.52;;;23.90;62.30;;;;;;4964414;28;20143;-29
2021/07/06 09:23:38;;;;;;;0.60;0.40;;;23.90;61.90;;;;;;4968249;28;20081;-37
2021/07/06 09:26:09;;;;;;;0.80;0.40;;;23.90;61.90;;;;;;4893958;29;20044;-34
2021/07/06 09:28:37;;;;;;;0.73;0.40;;;24.00;62.00;;;;;;4894090;29;20090;-28
2021/07/06 09:31:15;;;;;;;0.93;0.70;;;24.00;61.70;;;;;;4893063;29;20421;-34
2021/07/06 09:33:59;;;;;;;0.60;0.38;;;23.90;62.20;;;;;;4892337;29;20060;-34
2021/07/06 09:36:28;;;;;;;1.38;0.50;;;23.90;62.50;;;;;;4894024;29;20032;-30
2021/07/06 09:39:06;;;;;;;1.70;0.40;;;24.00;62.40;;;;;;4893993;29;20036;-31
2021/07/06 09:41:31;;;;;;;0.52;0.30;;;24.10;62.10;;;;;;4894968;29;20040;-34
2021/07/06 09:44:17;;;;;;;0.55;0.30;;;24.00;62.40;;;;;;4892104;29;20420;-35
2021/07/06 09:47:09;;;;;;;1.25;0.55;;;24.00;62.40;;;;;;4892856;29;20055;-33
2021/07/06 09:49:37;;;;;;;0.50;0.40;;;24.00;62.20;;;;;;4883305;29;20534;-31
2021/07/06 09:52:13;;;;;;;1.65;0.50;;;24.10;62.10;;;;;;4893251;29;20059;-36
2021/07/06 09:54:46;;;;;;;0.85;0.57;;;24.10;62.70;;;;;;4891402;29;20040;-28
2021/07/06 09:57:32;;;;;;;1.85;0.60;;;24.20;61.90;;;;;;4939611;28;20077;-38
2021/07/06 10:00:10;;;;;;;1.58;0.55;;;24.20;61.90;;;;;;4966661;28;20050;-33
2021/07/06 10:02:36;;;;;;;3.38;0.57;;;24.20;62.10;;;;;;4963427;28;20576;-33
2021/07/06 10:05:05;;;;;;;1.27;0.57;;;24.20;62.00;;;;;;4964011;28;20101;-32
2021/07/06 10:07:31;;;;;;;3.33;0.55;;;24.20;62.20;;;;;;4977829;28;20049;-32
2021/07/06 10:09:57;;;;;;;2.00;0.60;;;24.20;62.10;;;;;;4967403;28;20413;-30
2021/07/06 10:12:23;;;;;;;12.27;0.65;;;24.20;61.90;;;;;;4967676;28;20030;-33
2021/07/06 10:14:49;;;;;;;2.63;0.50;;;24.30;61.50;;;;;;4957102;28;20061;-30
2021/07/06 10:17:15;;;;;;;1.95;0.65;;;24.20;61.50;;;;;;4965368;28;20135;-28
2021/07/06 10:19:42;;;;;;;0.47;0.35;;;24.20;61.60;;;;;;4964355;28;20056;-34
2021/07/06 10:22:07;;;;;;;0.55;0.40;;;24.20;61.80;;;;;;4966167;28;20049;-32
2021/07/06 10:24:43;;;;;;;1.48;0.30;;;24.20;61.50;;;;;;4960394;28;20852;-29
2021/07/06 10:27:29;;;;;;;1.30;0.60;;;24.20;61.50;;;;;;4955305;28;20035;-32
2021/07/06 10:30:18;;;;;;;0.90;0.50;;;24.20;61.10;;;;;;4958477;28;20034;-31
2021/07/06 10:32:48;;;;;;;1.48;0.40;;;24.20;61.60;;;;;;4970029;28;20141;-32
2021/07/06 10:35:14;;;;;;;1.67;0.60;;;24.20;61.60;;;;;;4949875;28;20039;-31
2021/07/06 10:37:40;;;;;;;2.22;0.60;;;24.20;61.60;;;;;;4965210;28;20038;-33
2021/07/06 10:40:18;;;;;;;1.00;0.60;;;24.20;61.60;;;;;;4965584;28;20112;-34
2021/07/06 10:42:46;;;;;;;1.90;0.60;;;24.20;61.70;;;;;;4972307;28;20679;-29
2021/07/06 10:45:34;;;;;;;1.52;0.68;;;24.30;61.80;;;;;;4959432;28;20048;-33
2021/07/06 10:48:00;;;;;;;2.50;0.55;;;24.30;61.80;;;;;;4952180;28;20054;-30
2021/07/06 10:50:32;;;;;;;1.05;0.47;;;24.30;61.40;;;;;;4951070;28;20042;-28
2021/07/06 10:53:14;;;;;;;3.63;0.77;;;24.30;61.30;;;;;;4970499;28;20035;-28
2021/07/06 10:55:40;;;;;;;2.00;0.65;;;24.30;61.50;;;;;;4964244;28;20046;-28
2021/07/06 10:58:05;;;;;;;1.80;0.77;;;24.30;61.40;;;;;;4966776;28;20034;-31
2021/07/06 11:00:44;;;;;;;4.35;0.70;;;24.30;61.80;;;;;;4936155;28;20074;-32
2021/07/06 11:03:19;;;;;;;2.97;0.60;;;24.30;61.60;;;;;;4957914;28;20034;-33
2021/07/06 11:05:45;;;;;;;1.25;0.60;;;24.30;62.00;;;;;;4969035;28;20046;-35
2021/07/06 11:08:39;;;;;;;1.38;0.47;;;24.40;61.90;;;;;;4961266;28;20044;-36
2021/07/06 11:11:05;;;;;;;1.10;0.47;;;24.40;61.90;;;;;;4967212;28;20062;-31
2021/07/06 11:13:31;;;;;;;2.58;0.70;;;24.40;61.60;;;;;;4964026;28;20161;-34
2021/07/06 11:15:58;;;;;;;2.75;0.43;;;24.40;61.30;;;;;;4968554;28;20424;-33
2021/07/06 11:18:41;;;;;;;2.75;0.52;;;24.50;61.60;;;;;;4961543;28;20042;-30
2021/07/06 11:21:30;;;;;;;5.75;0.65;;;24.60;61.20;;;;;;4965911;28;20030;-31
2021/07/06 11:24:15;;;;;;;1.70;0.68;;;24.60;60.90;;;;;;4965898;28;20035;-27
2021/07/06 11:26:43;;;;;;;0.57;0.43;;;24.50;61.30;;;;;;4969663;28;20050;-30
2021/07/06 11:29:09;;;;;;;1.52;0.52;;;24.50;61.30;;;;;;4969782;28;20113;-30
2021/07/06 11:31:34;;;;;;;1.55;0.70;;;24.50;61.10;;;;;;4972028;28;20034;-31
2021/07/06 11:34:04;;;;;;;5.93;0.95;;;24.50;61.30;;;;;;4968738;28;20118;-33
2021/07/06 11:36:30;;;;;;;4.15;0.70;;;24.50;61.40;;;;;;4959815;28;20039;-33
2021/07/06 11:38:57;;;;;;;3.20;0.95;;;24.50;60.90;;;;;;4952259;28;20089;-30
2021/07/06 11:41:23;;;;;;;2.78;0.60;;;24.40;61.40;;;;;;4968153;28;20531;-34
2021/07/06 11:43:49;;;;;;;1.10;0.70;;;24.30;61.60;;;;;;4970516;28;20053;-39
2021/07/06 11:46:16;;;;;;;1.05;0.50;;;24.30;61.10;;;;;;4971087;28;20425;-38
2021/07/06 11:48:43;;;;;;;1.10;0.55;;;24.30;61.30;;;;;;4956646;28;20027;-26
2021/07/06 11:51:13;;;;;;;1.23;0.63;;;24.30;61.30;;;;;;4973168;28;20746;-35
2021/07/06 11:53:40;;;;;;;1.45;0.60;;;24.30;61.10;;;;;;4967550;28;20101;-31
2021/07/06 11:56:08;;;;;;;2.15;0.70;;;24.30;61.00;;;;;;4957166;28;20030;-28
2021/07/06 11:58:34;;;;;;;3.17;0.70;;;24.30;61.40;;;;;;4965917;28;21539;-29
2021/07/06 12:01:05;;;;;;;3.13;0.50;;;24.30;61.30;;;;;;4968047;28;20598;-39
2021/07/06 12:03:32;;;;;;;0.73;0.57;;;24.30;61.20;;;;;;4967675;28;20133;-33
2021/07/06 12:06:01;;;;;;;0.98;0.52;;;24.30;61.20;;;;;;4969290;28;20066;-28
2021/07/06 12:08:28;;;;;;;1.17;0.60;;;24.30;61.40;;;;;;4965921;28;20038;-27
2021/07/06 12:10:58;;;;;;;0.77;0.40;;;24.30;61.10;;;;;;4957403;28;20031;-32
2021/07/06 12:13:24;;;;;;;3.00;0.70;;;24.30;62.10;;;;;;4968525;28;20386;-29
2021/07/06 12:15:52;;;;;;;1.25;0.50;;;24.30;61.40;;;;;;4967347;28;20074;-33
2021/07/06 12:18:17;;;;;;;0.70;0.35;;;24.30;61.50;;;;;;4962268;28;20536;-27
2021/07/06 12:20:54;;;;;;;1.25;0.60;;;24.30;61.10;;;;;;4967203;28;20039;-31
2021/07/06 12:23:20;;;;;;;1.02;0.60;;;24.30;61.00;;;;;;4967246;28;20074;-29
2021/07/06 12:25:46;;;;;;;0.90;0.55;;;24.30;61.40;;;;;;4970973;28;20070;-33
2021/07/06 12:28:12;;;;;;;1.13;0.40;;;24.30;61.20;;;;;;4955158;28;20142;-30
2021/07/06 12:30:37;;;;;;;3.00;0.50;;;24.30;61.10;;;;;;4971117;28;20034;-27
2021/07/06 12:33:07;;;;;;;1.23;0.50;;;24.30;61.10;;;;;;4966867;28;20109;-31
2021/07/06 12:35:33;;;;;;;0.75;0.60;;;24.30;61.40;;;;;;4968866;28;20053;-33
2021/07/06 12:38:05;;;;;;;0.50;0.40;;;24.30;61.20;;;;;;4963850;28;21359;-31
2021/07/06 12:40:31;;;;;;;1.08;0.50;;;24.30;60.90;;;;;;4968592;28;20030;-27
2021/07/06 12:42:57;;;;;;;0.50;0.35;;;24.30;60.90;;;;;;4967112;28;20614;-30
2021/07/06 12:45:22;;;;;;;1.60;0.70;;;24.30;60.90;;;;;;4971294;28;20520;-25
2021/07/06 12:47:48;;;;;;;1.25;0.60;;;24.30;60.90;;;;;;4968218;28;20038;-29
2021/07/06 12:50:21;;;;;;;0.60;0.40;;;24.30;60.90;;;;;;4966836;28;20041;-30